Time;durP1;ratioP1;P1;durP2;ratioP2;P2;SDS_P1;SDS_P2;PMS_P1;PMS_P2;Temp;Humidity;BMP_temperature;BMP_pressure;BME280_temperature;BME280_humidity;BME280_pressure;Samples;Min_cycle;Max_cycle;Signal;HPM_P1;HPM_P2
2021/09/27 00:03:38;;;;;;;7.20;3.58;;;21.00;71.80;;;;;;20824297;28;20041;-61
2021/09/27 00:13:41;;;;;;;6.50;2.92;;;21.00;71.70;;;;;;20823923;28;20033;-60
2021/09/27 00:23:42;;;;;;;5.47;3.92;;;21.00;72.00;;;;;;20823764;28;20029;-61
2021/09/27 00:33:43;;;;;;;4.63;3.10;;;20.90;72.20;;;;;;20823907;28;20037;-61
2021/09/27 00:43:44;;;;;;;7.47;3.33;;;20.90;72.10;;;;;;20822075;28;20467;-61
2021/09/27 00:53:51;;;;;;;6.03;4.13;;;20.90;72.20;;;;;;20821202;28;20024;-61
2021/09/27 01:03:52;;;;;;;3.70;2.78;;;20.90;73.20;;;;;;20821138;28;20040;-61
2021/09/27 01:14:08;;;;;;;4.95;3.45;;;20.90;72.40;;;;;;20820314;28;20080;-61
2021/09/27 01:24:48;;;;;;;7.90;3.85;;;20.90;72.30;;;;;;20820309;28;20033;-60
2021/09/27 01:35:16;;;;;;;4.32;3.03;;;20.90;72.40;;;;;;20819891;28;20037;-61
2021/09/27 01:45:30;;;;;;;6.10;3.05;;;20.90;72.50;;;;;;20817272;28;20033;-60
2021/09/27 01:55:40;;;;;;;6.30;2.95;;;20.80;72.30;;;;;;20827683;28;20112;-61
2021/09/27 02:06:02;;;;;;;4.72;4.05;;;20.90;72.30;;;;;;20834930;28;20416;-61
2021/09/27 02:16:18;;;;;;;6.55;3.67;;;20.90;72.40;;;;;;20838898;28;20021;-60
2021/09/27 02:26:20;;;;;;;4.30;3.50;;;20.80;72.50;;;;;;20847403;28;20025;-61
2021/09/27 02:36:26;;;;;;;4.55;3.60;;;20.80;72.70;;;;;;20831910;28;20113;-61
2021/09/27 02:46:29;;;;;;;6.53;4.30;;;20.90;72.70;;;;;;20831473;28;20511;-60
2021/09/27 02:56:36;;;;;;;7.07;4.32;;;20.80;72.90;;;;;;20842810;22;20067;-54
2021/09/27 03:07:01;;;;;;;9.00;4.10;;;20.80;73.10;;;;;;20816246;28;20458;-57
2021/09/27 03:17:13;;;;;;;8.13;4.28;;;20.80;72.50;;;;;;20828865;28;20021;-52
2021/09/27 03:27:49;;;;;;;11.88;3.92;;;20.80;72.60;;;;;;20825695;28;20170;-54
2021/09/27 03:37:59;;;;;;;9.23;4.68;;;20.80;72.60;;;;;;20819312;28;20809;-57
2021/09/27 03:48:21;;;;;;;5.90;3.08;;;20.80;72.60;;;;;;20824072;28;20053;-55
2021/09/27 03:58:30;;;;;;;10.18;3.97;;;20.80;72.60;;;;;;20821873;28;20404;-55
2021/09/27 04:08:59;;;;;;;6.88;3.85;;;20.80;72.50;;;;;;20821661;28;20113;-56
2021/09/27 04:19:31;;;;;;;6.55;3.10;;;20.80;72.80;;;;;;20820259;28;20037;-55
2021/09/27 04:30:10;;;;;;;4.97;3.00;;;20.90;72.70;;;;;;20820856;28;20044;-53
2021/09/27 04:40:12;;;;;;;5.57;3.20;;;20.80;72.50;;;;;;20808193;28;20428;-56
2021/09/27 04:50:31;;;;;;;7.68;3.33;;;20.80;72.40;;;;;;20818418;28;20029;-58
2021/09/27 05:00:50;;;;;;;;;;;20.80;72.60;;;;;;20819799;28;20112;-56
2021/09/27 05:11:09;;;;;;;7.93;2.80;;;20.80;72.50;;;;;;20816068;28;19913;-57
2021/09/27 05:21:40;;;;;;;11.55;4.85;;;20.80;72.50;;;;;;20815253;28;20032;-54
2021/09/27 05:32:17;;;;;;;9.30;3.92;;;20.80;72.50;;;;;;20815021;28;20083;-57
2021/09/27 05:42:46;;;;;;;9.20;4.43;;;20.80;72.40;;;;;;20785808;28;20439;-59
2021/09/27 05:53:02;;;;;;;14.18;3.72;;;20.90;72.10;;;;;;20803379;28;20045;-59
2021/09/27 06:03:33;;;;;;;14.77;4.00;;;21.20;68.40;;;;;;20813805;28;20053;-62
2021/09/27 06:13:39;;;;;;;22.90;4.10;;;21.30;66.30;;;;;;20814484;28;20030;-60
2021/09/27 06:24:19;;;;;;;18.73;6.82;;;21.50;65.10;;;;;;20814091;28;20037;-62
2021/09/27 06:34:44;;;;;;;17.27;5.30;;;21.40;65.00;;;;;;20815462;28;20032;-57
2021/09/27 06:44:46;;;;;;;21.25;5.82;;;21.40;65.00;;;;;;20771338;28;20045;-62
2021/09/27 06:54:46;;;;;;;18.10;6.85;;;21.60;64.70;;;;;;20826288;28;20046;-61
2021/09/27 07:04:47;;;;;;;20.50;6.28;;;21.70;65.30;;;;;;20828919;28;20064;-62
2021/09/27 07:14:48;;;;;;;25.60;7.03;;;21.60;65.70;;;;;;20828983;28;20022;-62
2021/09/27 07:24:48;;;;;;;23.05;6.78;;;21.70;66.10;;;;;;20826300;28;20477;-61
2021/09/27 07:34:49;;;;;;;23.50;6.82;;;21.60;66.60;;;;;;20808132;28;20451;-62
2021/09/27 07:44:49;;;;;;;15.48;7.30;;;21.70;66.70;;;;;;20824607;28;20033;-61
2021/09/27 07:54:51;;;;;;;16.00;5.43;;;21.70;67.00;;;;;;20821855;28;20488;-60
2021/09/27 08:04:52;;;;;;;15.57;6.05;;;21.80;67.00;;;;;;20821782;28;20112;-61
2021/09/27 08:14:54;;;;;;;16.90;4.90;;;22.00;66.50;;;;;;20807460;28;20053;-61
2021/09/27 08:24:54;;;;;;;11.27;4.88;;;22.00;66.40;;;;;;20805498;28;20056;-61
2021/09/27 08:34:55;;;;;;;17.95;5.45;;;22.00;66.50;;;;;;20819639;28;20029;-60
2021/09/27 08:44:57;;;;;;;16.20;5.90;;;22.10;66.40;;;;;;20814221;28;20041;-59
2021/09/27 08:55:00;;;;;;;11.13;3.95;;;22.10;66.40;;;;;;20798085;28;20025;-60
2021/09/27 09:05:06;;;;;;;14.40;5.28;;;22.10;66.40;;;;;;20818901;28;20029;-59
2021/09/27 09:15:21;;;;;;;14.43;4.65;;;22.20;66.60;;;;;;20808791;28;20104;-58
2021/09/27 09:25:28;;;;;;;12.88;4.30;;;22.20;66.30;;;;;;20821025;28;20029;-58
2021/09/27 09:35:31;;;;;;;11.93;4.75;;;22.20;66.30;;;;;;20813594;28;20570;-62
2021/09/27 09:45:36;;;;;;;7.50;4.05;;;22.20;67.30;;;;;;20805098;28;20432;-61
2021/09/27 09:55:43;;;;;;;11.52;5.15;;;22.20;67.40;;;;;;20812011;28;20029;-61
2021/09/27 10:05:50;;;;;;;13.85;4.63;;;22.30;67.30;;;;;;20810459;28;20036;-58
2021/09/27 10:15:51;;;;;;;7.55;3.75;;;22.20;67.40;;;;;;20839569;28;20372;-60
2021/09/27 10:25:52;;;;;;;7.78;3.90;;;22.20;67.10;;;;;;20825574;28;20127;-62
2021/09/27 10:36:10;;;;;;;21.75;4.60;;;22.30;67.50;;;;;;20825958;28;20102;-59
2021/09/27 10:46:11;;;;;;;8.67;3.63;;;22.30;67.40;;;;;;20823393;28;20053;-59
2021/09/27 10:56:38;;;;;;;5.25;3.63;;;22.40;67.20;;;;;;20855363;28;20483;-60
2021/09/27 11:06:44;;;;;;;8.52;3.83;;;22.40;67.00;;;;;;20829455;28;20119;-60
2021/09/27 11:16:47;;;;;;;10.40;4.32;;;22.30;66.90;;;;;;20825711;28;20037;-61
2021/09/27 11:27:16;;;;;;;7.47;3.88;;;22.40;67.20;;;;;;20799011;28;20061;-65
2021/09/27 11:37:46;;;;;;;10.35;3.53;;;22.40;66.90;;;;;;20810759;28;20033;-64
2021/09/27 11:48:10;;;;;;;6.97;3.70;;;22.40;67.00;;;;;;20806267;28;20053;-64
2021/09/27 11:58:27;;;;;;;6.28;3.95;;;22.40;67.00;;;;;;20822627;28;20030;-62
2021/09/27 12:08:31;;;;;;;9.02;2.97;;;22.00;68.50;;;;;;20816298;28;20101;-62
2021/09/27 12:18:54;;;;;;;6.13;4.03;;;21.80;69.00;;;;;;20821252;28;20025;-61
2021/09/27 12:29:22;;;;;;;5.32;3.72;;;21.80;69.00;;;;;;20823705;28;20117;-62
2021/09/27 12:39:25;;;;;;;5.30;3.43;;;21.70;68.90;;;;;;20806094;28;20040;-62
2021/09/27 12:49:39;;;;;;;3.83;2.88;;;21.70;69.30;;;;;;20815173;28;20023;-61
2021/09/27 12:59:40;;;;;;;6.57;3.25;;;21.60;69.30;;;;;;20823637;28;20036;-61
2021/09/27 13:10:23;;;;;;;6.13;3.20;;;21.60;69.30;;;;;;20819787;28;20033;-61
2021/09/27 13:20:46;;;;;;;5.10;4.10;;;21.60;69.10;;;;;;20819130;28;20028;-62
2021/09/27 13:31:03;;;;;;;5.05;2.90;;;21.50;69.30;;;;;;20816348;28;20124;-58
2021/09/27 13:41:07;;;;;;;5.00;3.17;;;21.50;69.60;;;;;;20815840;28;20400;-62
2021/09/27 13:51:07;;;;;;;5.65;3.08;;;21.50;69.60;;;;;;20818868;28;20028;-62
2021/09/27 14:01:08;;;;;;;5.35;3.17;;;21.50;69.80;;;;;;20832491;28;20029;-62
2021/09/27 14:11:09;;;;;;;4.72;2.88;;;21.50;69.80;;;;;;20831058;28;20057;-62
2021/09/27 14:21:09;;;;;;;4.30;2.50;;;21.40;70.00;;;;;;20830297;28;20103;-57
2021/09/27 14:31:10;;;;;;;4.53;2.53;;;21.40;69.90;;;;;;20829331;28;20034;-59
2021/09/27 14:41:15;;;;;;;17.90;3.83;;;21.40;69.80;;;;;;20829607;28;20053;-63
2021/09/27 14:51:17;;;;;;;18.50;5.72;;;21.50;70.30;;;;;;20826089;28;20496;-62
2021/09/27 15:01:18;;;;;;;17.80;4.38;;;21.60;70.20;;;;;;20828057;28;20667;-61
2021/09/27 15:11:19;;;;;;;12.60;4.23;;;21.60;70.10;;;;;;20831498;28;20029;-62
2021/09/27 15:21:20;;;;;;;13.40;4.38;;;21.60;70.00;;;;;;20828257;28;20464;-60
2021/09/27 15:31:23;;;;;;;17.70;4.80;;;21.60;70.30;;;;;;20825243;28;20565;-63
2021/09/27 15:41:24;;;;;;;15.75;5.43;;;21.60;70.40;;;;;;20822269;28;20033;-62
2021/09/27 15:51:25;;;;;;;70.53;10.40;;;21.50;70.50;;;;;;20823067;28;20116;-62
2021/09/27 16:01:25;;;;;;;56.17;8.85;;;21.60;72.40;;;;;;20820625;28;20033;-61
2021/09/27 16:11:27;;;;;;;49.15;8.23;;;21.80;70.20;;;;;;20822932;28;20049;-60
2021/09/27 16:21:30;;;;;;;33.75;7.53;;;21.70;69.40;;;;;;20821302;28;20121;-60
2021/09/27 16:31:34;;;;;;;37.83;7.50;;;21.80;69.00;;;;;;20819189;28;20780;-60
2021/09/27 16:41:37;;;;;;;32.03;8.77;;;21.70;68.80;;;;;;20819006;28;20064;-57
2021/09/27 16:51:39;;;;;;;26.65;6.47;;;21.80;68.40;;;;;;20818048;28;20676;-60
2021/09/27 17:01:41;;;;;;;23.77;5.82;;;21.80;67.80;;;;;;20818231;28;20404;-60
2021/09/27 17:11:42;;;;;;;21.63;6.28;;;21.80;68.00;;;;;;20812107;28;20432;-61
2021/09/27 17:21:43;;;;;;;21.38;5.53;;;21.90;67.60;;;;;;20819244;28;20029;-61
2021/09/27 17:31:48;;;;;;;20.05;5.55;;;21.80;67.40;;;;;;20817251;28;20056;-62
2021/09/27 17:41:49;;;;;;;18.30;5.45;;;21.90;67.20;;;;;;20820194;28;20029;-61
2021/09/27 17:51:54;;;;;;;19.27;5.63;;;21.90;67.00;;;;;;20900062;28;22301;-57
2021/09/27 18:01:54;;;;;;;19.00;5.10;;;21.90;66.70;;;;;;20899939;28;20171;-62
2021/09/27 18:11:55;;;;;;;19.50;5.22;;;21.90;66.40;;;;;;20899670;28;20029;-57
2021/09/27 18:21:55;;;;;;;13.20;4.65;;;21.90;66.30;;;;;;20899348;28;20029;-62
2021/09/27 18:31:56;;;;;;;15.65;4.45;;;21.90;66.30;;;;;;20898444;28;20045;-62
2021/09/27 18:41:57;;;;;;;14.57;4.75;;;21.80;66.20;;;;;;20907931;28;20458;-62
2021/09/27 18:51:57;;;;;;;11.43;4.07;;;21.90;65.80;;;;;;20891421;28;20037;-62
2021/09/27 19:01:58;;;;;;;7.90;4.00;;;21.90;65.80;;;;;;20910968;28;20479;-62
2021/09/27 19:11:59;;;;;;;8.95;4.80;;;21.90;65.60;;;;;;20905680;28;20506;-60
2021/09/27 19:21:59;;;;;;;16.07;4.17;;;21.90;65.30;;;;;;20828899;28;20403;-62
2021/09/27 19:32:00;;;;;;;8.88;4.68;;;22.00;64.70;;;;;;20895652;28;20578;-61
2021/09/27 19:42:01;;;;;;;10.32;4.07;;;22.20;63.40;;;;;;20885240;28;20503;-59
2021/09/27 19:52:02;;;;;;;13.15;4.55;;;22.20;63.00;;;;;;20885799;28;20481;-61
2021/09/27 20:02:03;;;;;;;7.88;3.47;;;22.30;62.70;;;;;;20893712;28;20037;-59
2021/09/27 20:12:05;;;;;;;9.57;3.33;;;22.40;62.40;;;;;;20889349;28;20042;-58
2021/09/27 20:22:05;;;;;;;18.70;4.28;;;22.40;62.40;;;;;;20894574;28;20044;-56
2021/09/27 20:32:06;;;;;;;8.57;4.03;;;22.40;64.00;;;;;;20901284;28;20029;-58
2021/09/27 20:42:07;;;;;;;7.88;3.10;;;22.30;63.40;;;;;;20776612;28;20047;-57
2021/09/27 20:52:09;;;;;;;10.02;3.72;;;22.40;64.50;;;;;;20894285;28;20182;-58
2021/09/27 21:02:09;;;;;;;11.30;3.55;;;22.50;64.60;;;;;;20899795;28;20025;-58
2021/09/27 21:12:10;;;;;;;6.35;2.78;;;22.60;64.70;;;;;;20900039;28;20107;-57
2021/09/27 21:22:11;;;;;;;8.60;3.13;;;22.60;64.90;;;;;;20824575;28;20115;-57
2021/09/27 21:32:11;;;;;;;7.20;3.03;;;22.30;65.50;;;;;;20898098;28;20043;-58
2021/09/27 21:42:13;;;;;;;9.48;3.55;;;22.30;65.60;;;;;;20885506;28;20029;-58
2021/09/27 21:52:14;;;;;;;8.85;2.92;;;22.20;66.10;;;;;;20877383;28;20052;-58
2021/09/27 22:02:14;;;;;;;10.30;3.47;;;22.10;67.00;;;;;;20895475;28;20037;-57
2021/09/27 22:12:16;;;;;;;5.82;3.05;;;22.00;67.40;;;;;;20899048;28;20562;-56
2021/09/27 22:22:16;;;;;;;7.32;2.55;;;21.90;67.90;;;;;;20882244;28;20025;-58
2021/09/27 22:32:17;;;;;;;6.35;2.72;;;21.80;67.80;;;;;;20915779;28;20035;-59
2021/09/27 22:42:18;;;;;;;8.20;3.00;;;21.70;68.20;;;;;;20914310;28;20033;-58
2021/09/27 22:52:18;;;;;;;9.80;2.80;;;21.70;68.40;;;;;;20912477;28;20548;-56
2021/09/27 23:02:19;;;;;;;17.38;3.20;;;21.60;68.40;;;;;;20912098;28;20033;-59
2021/09/27 23:12:21;;;;;;;12.88;2.70;;;21.60;69.00;;;;;;20891251;28;20577;-59
2021/09/27 23:22:23;;;;;;;16.23;3.13;;;21.60;69.00;;;;;;20885058;28;20048;-59
2021/09/27 23:32:23;;;;;;;14.88;3.05;;;21.50;69.10;;;;;;20897391;28;20025;-60
2021/09/27 23:42:24;;;;;;;10.93;3.30;;;21.40;69.90;;;;;;20863005;28;20496;-60
2021/09/27 23:52:25;;;;;;;11.73;3.35;;;21.40;69.80;;;;;;20861784;28;20621;-60
